Time;durP1;ratioP1;P1;durP2;ratioP2;P2;SDS_P1;SDS_P2;PMS_P1;PMS_P2;Temp;Humidity;BMP_temperature;BMP_pressure;BME280_temperature;BME280_humidity;BME280_pressure;Samples;Min_cycle;Max_cycle;Signal;HPM_P1;HPM_P2
2021/06/09 00:00:27;;;;;;;39.23;6.57;;;;;;;;;;4876342;28;20303;-74
2021/06/09 00:02:50;;;;;;;16.43;2.73;;;;;;;;;;4877592;28;20192;-74
2021/06/09 00:05:12;;;;;;;6.70;1.40;;;11.90;10.20;;;;;;4877660;28;20185;-73
2021/06/09 00:07:34;;;;;;;7.30;1.40;;;;;;;;;;4877825;28;20247;-73
2021/06/09 00:09:57;;;;;;;15.47;2.80;;;;;;;;;;4877352;28;20239;-74
2021/06/09 00:12:19;;;;;;;6.83;1.33;;;;;;;;;;4878968;28;20203;-74
2021/06/09 00:14:42;;;;;;;7.70;1.43;;;12.00;1.00;;;;;;4883874;28;20193;-73
2021/06/09 00:17:05;;;;;;;5.93;1.20;;;;;;;;;;4879479;28;20185;-74
2021/06/09 00:19:27;;;;;;;7.43;1.40;;;;;;;;;;4876105;28;20194;-73
2021/06/09 00:21:50;;;;;;;14.00;2.57;;;;;;;;;;4877411;28;20239;-73
2021/06/09 00:24:12;;;;;;;14.30;2.53;;;;;;;;;;4876917;28;20247;-74
2021/06/09 00:26:34;;;;;;;9.97;1.83;;;;;;;;;;4877312;28;20193;-73
2021/06/09 00:28:56;;;;;;;12.10;2.20;;;;;;;;;;4876608;28;20189;-73
2021/06/09 00:31:20;;;;;;;5.87;1.10;;;11.80;99.90;;;;;;4877428;28;20213;-74
2021/06/09 00:33:42;;;;;;;6.17;1.30;;;;;;;;;;4877530;28;20193;-73
2021/06/09 00:36:05;;;;;;;8.33;1.60;;;11.70;99.90;;;;;;4877023;28;20194;-74
2021/06/09 00:38:29;;;;;;;7.63;1.47;;;11.70;99.90;;;;;;4877119;28;20197;-74
2021/06/09 00:40:51;;;;;;;12.53;2.23;;;;;;;;;;4876833;28;20193;-73
2021/06/09 00:43:15;;;;;;;6.83;1.37;;;11.70;99.90;;;;;;4877146;28;20239;-74
2021/06/09 00:45:43;;;;;;;7.37;1.43;;;11.70;99.90;;;;;;4875735;28;20201;-74
2021/06/09 00:48:07;;;;;;;4.00;0.90;;;11.70;1.00;;;;;;4877329;28;20193;-74
2021/06/09 00:50:29;;;;;;;10.43;1.97;;;;;;;;;;4875737;28;20209;-73
2021/06/09 00:52:51;;;;;;;13.73;2.40;;;;;;;;;;4876467;28;20220;-73
2021/06/09 00:55:15;;;;;;;6.07;1.17;;;11.70;1.00;;;;;;4856277;28;20505;-73
2021/06/09 00:57:38;;;;;;;8.20;1.70;;;11.70;1.00;;;;;;4857749;28;20182;-73
2021/06/09 01:00:00;;;;;;;12.07;2.27;;;;;;;;;;4857265;28;20182;-74
2021/06/09 01:02:23;;;;;;;6.20;1.27;;;;;;;;;;4856166;28;20601;-74
2021/06/09 01:04:46;;;;;;;7.43;1.43;;;11.70;1.00;;;;;;4857234;28;20605;-74
2021/06/09 01:07:09;;;;;;;8.13;1.50;;;;;;;;;;4869951;28;20264;-74
2021/06/09 01:09:31;;;;;;;10.23;1.83;;;11.60;1.00;;;;;;4876759;28;20185;-73
2021/06/09 01:11:54;;;;;;;12.30;2.30;;;11.60;33.40;;;;;;4876237;28;20217;-74
2021/06/09 01:14:17;;;;;;;12.67;2.37;;;;;;;;;;4876420;28;20231;-74
2021/06/09 01:16:39;;;;;;;6.83;1.30;;;;;;;;;;4876829;28;20642;-74
2021/06/09 01:19:01;;;;;;;12.47;2.33;;;;;;;;;;4876473;28;20642;-74
2021/06/09 01:21:26;;;;;;;10.20;1.93;;;11.60;99.90;;;;;;4875094;28;20284;-74
2021/06/09 01:23:51;;;;;;;23.43;3.83;;;11.70;99.90;;;;;;4872829;28;20940;-73
2021/06/09 01:26:14;;;;;;;9.90;1.93;;;;;;;;;;4872057;28;20213;-74
2021/06/09 01:28:37;;;;;;;9.87;1.90;;;11.20;1.00;;;;;;4863413;28;20198;-74
2021/06/09 01:30:59;;;;;;;10.77;2.27;;;;;;;;;;4874732;28;20264;-74
2021/06/09 01:33:22;;;;;;;6.97;1.50;;;11.50;1.00;;;;;;4858204;28;20206;-74
2021/06/09 01:35:45;;;;;;;7.30;1.40;;;;;;;;;;4856247;28;20182;-74
2021/06/09 01:38:08;;;;;;;8.57;1.73;;;11.50;1.00;;;;;;4856398;28;20267;-74
2021/06/09 01:40:31;;;;;;;8.40;1.60;;;;;;;;;;4856923;28;20568;-74
2021/06/09 01:42:54;;;;;;;15.23;2.87;;;11.40;1.00;;;;;;4869325;28;20259;-74
2021/06/09 01:45:19;;;;;;;7.13;1.47;;;11.40;99.90;;;;;;4874023;28;20753;-74
2021/06/09 01:47:43;;;;;;;6.40;1.30;;;;;;;;;;4874077;28;20193;-74
2021/06/09 01:50:08;;;;;;;8.00;1.50;;;11.40;1.00;;;;;;4876329;28;20193;-74
2021/06/09 01:52:30;;;;;;;9.83;1.90;;;;;;;;;;4875935;28;20270;-74
2021/06/09 01:54:53;;;;;;;13.10;2.43;;;11.40;99.90;;;;;;4875002;28;20642;-74
2021/06/09 01:57:16;;;;;;;10.60;2.03;;;;;;;;;;4875419;28;20613;-74
2021/06/09 01:59:38;;;;;;;8.10;1.60;;;;;;;;;;4875840;28;20190;-74
2021/06/09 02:02:01;;;;;;;11.67;2.00;;;11.40;99.90;;;;;;4874334;28;20595;-74
2021/06/09 02:04:24;;;;;;;5.60;1.20;;;;;;;;;;4876014;28;20235;-74
2021/06/09 02:06:46;;;;;;;5.50;1.27;;;11.50;99.90;;;;;;4875229;28;20239;-74
2021/06/09 02:09:09;;;;;;;10.30;1.93;;;11.60;1.00;;;;;;4890174;28;20242;-73
2021/06/09 02:11:34;;;;;;;7.80;1.53;;;11.60;1.00;;;;;;4875156;28;20217;-74
2021/06/09 02:13:56;;;;;;;13.03;2.43;;;;;;;;;;4875239;28;20708;-75
2021/06/09 02:16:18;;;;;;;6.43;1.40;;;;;;;;;;4875444;28;20181;-73
2021/06/09 02:18:41;;;;;;;5.23;1.10;;;;;;;;;;4874840;28;20189;-74
2021/06/09 02:21:03;;;;;;;11.47;2.27;;;;;;;;;;4875242;28;20189;-74
2021/06/09 02:23:28;;;;;;;5.10;1.07;;;11.70;1.00;;;;;;4875342;28;20189;-74
2021/06/09 02:25:51;;;;;;;12.40;2.27;;;11.70;1.00;;;;;;4874826;28;20193;-74
2021/06/09 02:28:16;;;;;;;6.83;1.40;;;11.70;88.00;;;;;;4875401;28;20182;-73
2021/06/09 02:30:38;;;;;;;12.97;2.37;;;11.70;99.90;;;;;;4877038;28;20238;-74
2021/06/09 02:33:01;;;;;;;15.70;2.77;;;;;;;;;;4875001;28;20786;-74
2021/06/09 02:35:23;;;;;;;9.33;1.90;;;;;;;;;;4874619;28;20193;-73
2021/06/09 02:37:50;;;;;;;5.20;1.13;;;11.60;1.00;;;;;;4875339;28;20186;-74
2021/06/09 02:40:13;;;;;;;7.63;1.53;;;11.40;1.00;;;;;;4875687;28;20186;-73
2021/06/09 02:42:36;;;;;;;6.93;1.40;;;11.60;1.00;;;;;;4881497;28;20282;-73
2021/06/09 02:45:00;;;;;;;13.20;2.50;;;11.60;99.90;;;;;;4881018;28;20244;-73
2021/06/09 02:47:22;;;;;;;7.47;1.53;;;;;;;;;;4880383;28;20185;-73
2021/06/09 02:49:46;;;;;;;4.07;1.00;;;11.40;56.10;;;;;;4881687;28;20657;-74
2021/06/09 02:52:11;;;;;;;6.07;1.30;;;11.40;1.00;;;;;;4879815;28;20194;-74
2021/06/09 02:54:39;;;;;;;6.90;1.43;;;11.40;99.90;;;;;;4881308;28;20255;-74
2021/06/09 02:57:10;;;;;;;11.37;2.20;;;11.30;99.90;;;;;;4881212;28;20184;-73
2021/06/09 02:59:43;;;;;;;6.53;1.50;;;11.30;99.90;;;;;;4881557;28;20269;-74
2021/06/09 03:02:13;;;;;;;4.80;1.10;;;11.30;99.90;;;;;;4879422;28;20266;-73
2021/06/09 03:04:43;;;;;;;8.30;1.80;;;11.30;99.90;;;;;;4881565;28;20188;-74
2021/06/09 03:07:11;;;;;;;4.27;0.97;;;11.20;99.90;;;;;;4880499;28;20247;-74
2021/06/09 03:09:38;;;;;;;8.30;1.70;;;11.20;1.00;;;;;;4880427;28;20886;-74
2021/06/09 03:12:11;;;;;;;8.83;1.83;;;11.20;1.00;;;;;;4880786;28;20192;-74
2021/06/09 03:17:28;;;;;;;8.57;1.67;;;11.20;1.00;;;;;;4881318;28;20207;-74
2021/06/09 03:19:57;;;;;;;7.33;1.50;;;11.10;99.90;;;;;;4881197;28;20189;-74
2021/06/09 03:22:28;;;;;;;9.70;2.03;;;12.30;99.90;;;;;;4880893;28;20901;-74
2021/06/09 03:24:56;;;;;;;13.60;2.60;;;12.00;99.90;;;;;;4881116;28;20247;-74
2021/06/09 03:27:21;;;;;;;8.83;1.77;;;11.10;99.90;;;;;;4881052;28;20189;-74
2021/06/09 03:29:49;;;;;;;6.80;1.50;;;11.10;1.00;;;;;;4881207;28;20247;-74
2021/06/09 03:32:19;;;;;;;8.17;1.70;;;11.00;1.00;;;;;;4881196;28;20189;-74
2021/06/09 03:34:48;;;;;;;6.90;1.53;;;11.00;1.00;;;;;;4880982;28;20231;-75
2021/06/09 03:37:14;;;;;;;8.40;1.80;;;11.10;1.00;;;;;;4881203;28;20189;-74
2021/06/09 03:39:39;;;;;;;6.20;1.37;;;11.10;1.00;;;;;;4881311;28;20185;-74
2021/06/09 03:42:02;;;;;;;11.60;1.97;;;;;;;;;;4879525;28;20217;-74
2021/06/09 03:44:29;;;;;;;7.37;1.53;;;11.10;1.00;;;;;;4880413;28;20229;-75
2021/06/09 03:46:54;;;;;;;11.40;2.10;;;11.20;1.00;;;;;;4880775;28;20545;-74
2021/06/09 03:49:19;;;;;;;7.37;1.57;;;11.20;1.00;;;;;;4881189;28;20197;-74
2021/06/09 03:51:44;;;;;;;8.43;1.77;;;11.30;1.00;;;;;;4879799;28;20200;-74
2021/06/09 03:54:08;;;;;;;7.83;1.63;;;11.40;1.00;;;;;;4877649;28;20212;-74
2021/06/09 03:56:33;;;;;;;8.00;1.60;;;11.50;1.00;;;;;;4877959;28;20186;-74
2021/06/09 03:58:56;;;;;;;10.97;2.10;;;11.50;1.00;;;;;;4878019;28;20182;-74
2021/06/09 04:01:19;;;;;;;7.40;1.53;;;11.60;1.00;;;;;;4876336;28;20239;-74
2021/06/09 04:03:44;;;;;;;6.20;1.37;;;11.70;1.00;;;;;;4878231;28;20271;-74
2021/06/09 04:06:08;;;;;;;4.67;1.03;;;11.80;1.00;;;;;;4877360;28;20198;-74
2021/06/09 04:08:33;;;;;;;10.77;2.13;;;12.00;1.00;;;;;;4877853;28;20535;-74
2021/06/09 04:10:56;;;;;;;10.97;2.10;;;12.10;1.00;;;;;;4877830;28;20190;-74
2021/06/09 04:13:40;;;;;;;9.03;1.70;;;12.20;1.00;;;;;;4878027;28;20181;-74
2021/06/09 04:16:27;;;;;;;7.03;1.43;;;12.30;1.00;;;;;;4877226;28;20178;-74
2021/06/09 04:19:11;;;;;;;8.40;1.70;;;12.40;1.00;;;;;;4877753;28;20188;-74
2021/06/09 04:21:53;;;;;;;12.60;2.43;;;;;;;;;;4877381;28;20205;-74
2021/06/09 04:24:39;;;;;;;7.47;1.60;;;12.60;1.00;;;;;;4877624;28;20186;-74
2021/06/09 04:27:23;;;;;;;7.77;1.70;;;12.70;1.00;;;;;;4876801;28;20558;-74
2021/06/09 04:30:07;;;;;;;6.67;1.43;;;12.80;1.00;;;;;;4885523;28;20173;-74
2021/06/09 04:32:49;;;;;;;10.17;1.97;;;12.90;1.00;;;;;;4885129;28;20174;-73
2021/06/09 04:35:35;;;;;;;8.87;1.77;;;13.00;1.00;;;;;;4885200;28;20174;-74
2021/06/09 04:38:18;;;;;;;6.93;1.43;;;13.20;1.00;;;;;;4889763;28;20192;-74
2021/06/09 04:41:00;;;;;;;9.03;1.80;;;13.30;1.00;;;;;;4885214;28;20197;-74
2021/06/09 04:43:46;;;;;;;4.63;1.03;;;;;;;;;;4882715;28;20251;-74
2021/06/09 04:46:27;;;;;;;7.10;1.43;;;;;;;;;;4877269;28;20213;-74
2021/06/09 04:49:08;;;;;;;7.13;1.53;;;13.60;1.00;;;;;;4888785;28;20185;-74
2021/06/09 04:51:49;;;;;;;11.10;2.10;;;;;;;;;;4880582;28;20177;-74
2021/06/09 04:54:29;;;;;;;10.57;2.03;;;;;;;;;;4878308;28;20177;-74
2021/06/09 04:57:11;;;;;;;7.00;1.43;;;13.80;1.00;;;;;;4878859;28;20181;-74
2021/06/09 04:59:53;;;;;;;11.73;2.17;;;;;;;;;;4865141;28;20224;-74
2021/06/09 05:02:34;;;;;;;9.17;1.80;;;;;;;;;;4880994;28;20204;-74
2021/06/09 05:05:15;;;;;;;6.73;1.40;;;;;;;;;;4883953;28;20193;-74
2021/06/09 05:07:56;;;;;;;10.70;2.17;;;;;;;;;;4883316;28;20520;-74
2021/06/09 05:10:38;;;;;;;8.70;1.73;;;14.60;1.00;;;;;;4881129;28;20196;-74
2021/06/09 05:13:25;;;;;;;7.60;1.47;;;14.80;99.90;;;;;;4892284;28;20275;-75
2021/06/09 05:16:09;;;;;;;6.80;1.33;;;14.90;99.90;;;;;;4884544;28;20179;-77
2021/06/09 05:18:54;;;;;;;15.83;2.87;;;15.00;1.00;;;;;;4881384;28;20193;-78
2021/06/09 05:21:38;;;;;;;12.80;2.43;;;15.10;99.90;;;;;;4877492;28;20674;-78
2021/06/09 05:24:25;;;;;;;11.37;2.13;;;15.20;1.00;;;;;;4875514;28;20210;-78
2021/06/09 05:27:07;;;;;;;12.03;2.17;;;15.40;1.00;;;;;;4874131;28;20182;-78
2021/06/09 05:29:51;;;;;;;18.57;3.30;;;15.50;99.90;;;;;;4874617;28;20651;-74
2021/06/09 05:32:33;;;;;;;13.43;2.43;;;15.60;1.00;;;;;;4866078;28;20637;-76
2021/06/09 05:35:19;;;;;;;11.53;2.10;;;15.70;1.00;;;;;;4879218;28;20819;-78
2021/06/09 05:38:00;;;;;;;9.53;1.77;;;;;;;;;;4864142;28;20632;-77
2021/06/09 05:40:41;;;;;;;6.47;1.30;;;;;;;;;;4887822;28;20537;-76
2021/06/09 05:43:22;;;;;;;9.40;1.83;;;16.10;1.00;;;;;;4881695;28;20209;-77
2021/06/09 05:46:09;;;;;;;10.10;1.83;;;18.00;1.00;;;;;;4880466;28;20205;-77
2021/06/09 05:48:50;;;;;;;15.90;2.77;;;;;;;;;;4878893;28;20193;-78
2021/06/09 05:51:31;;;;;;;14.53;2.57;;;;;;;;;;4874768;28;20705;-78
2021/06/09 05:54:12;;;;;;;14.57;2.47;;;;;;;;;;4884046;28;20182;-78
2021/06/09 05:56:52;;;;;;;15.90;2.77;;;;;;;;;;4885702;28;20184;-78
2021/06/09 05:59:33;;;;;;;13.73;2.47;;;17.00;99.90;;;;;;4886087;28;20177;-75
2021/06/09 06:02:15;;;;;;;14.57;2.60;;;17.20;87.60;;;;;;4884637;28;20212;-78
2021/06/09 06:04:56;;;;;;;25.20;4.20;;;;;;;;;;4866218;28;20216;-74
2021/06/09 06:07:37;;;;;;;16.70;2.80;;;;;;;;;;4873191;28;20180;-75
2021/06/09 06:10:20;;;;;;;14.57;2.53;;;;;;;;;;4882235;28;20679;-76
2021/06/09 06:13:01;;;;;;;13.73;2.43;;;;;;;;;;4876679;28;20181;-77
2021/06/09 06:15:42;;;;;;;12.00;2.03;;;;;;;;;;4877217;28;20173;-78
2021/06/09 06:18:32;;;;;;;12.43;2.10;;;18.40;1.00;;;;;;4876943;28;20546;-77
2021/06/09 06:21:15;;;;;;;18.60;3.17;;;18.50;1.00;;;;;;4881789;28;20236;-79
2021/06/09 06:23:56;;;;;;;19.20;3.20;;;;;;;;;;4885709;28;20196;-76
2021/06/09 06:26:37;;;;;;;8.47;1.60;;;;;;;;;;4881779;28;20181;-75
2021/06/09 06:29:18;;;;;;;10.47;1.87;;;;;;;;;;4874730;28;20193;-75
2021/06/09 06:31:58;;;;;;;12.53;2.17;;;;;;;;;;4879653;28;20503;-77
2021/06/09 06:34:43;;;;;;;19.53;3.27;;;19.10;1.00;;;;;;4874308;28;20637;-75
2021/06/09 06:37:25;;;;;;;7.57;1.33;;;19.20;1.00;;;;;;4886449;28;20236;-76
2021/06/09 06:40:07;;;;;;;13.70;2.33;;;19.00;1.00;;;;;;4884315;28;20181;-77
2021/06/09 06:42:49;;;;;;;23.23;3.80;;;19.30;1.00;;;;;;4875687;28;20217;-79
2021/06/09 06:45:30;;;;;;;18.90;2.93;;;;;;;;;;4872150;28;20559;-79
2021/06/09 06:48:12;;;;;;;12.60;2.20;;;19.50;1.00;;;;;;4882922;28;20181;-79
2021/06/09 06:50:54;;;;;;;19.23;3.17;;;19.70;1.00;;;;;;4871916;28;20203;-79
2021/06/09 06:53:37;;;;;;;15.43;2.57;;;;;;;;;;4875353;28;20491;-75
2021/06/09 06:56:23;;;;;;;22.50;3.57;;;20.00;1.00;;;;;;4880278;28;20338;-75
2021/06/09 06:59:04;;;;;;;9.27;1.67;;;;;;;;;;4877832;28;20196;-78
2021/06/09 07:01:44;;;;;;;9.13;1.57;;;20.40;1.00;;;;;;4875289;28;20195;-78
2021/06/09 07:04:27;;;;;;;9.47;1.57;;;20.50;1.00;;;;;;4857076;28;20275;-78
2021/06/09 07:07:06;;;;;;;8.57;1.50;;;20.80;1.00;;;;;;4855211;28;20697;-77
2021/06/09 07:09:47;;;;;;;16.37;2.67;;;;;;;;;;4873123;28;20217;-76
2021/06/09 07:12:28;;;;;;;17.50;2.77;;;;;;;;;;4856689;28;20212;-76
2021/06/09 07:15:11;;;;;;;14.90;2.37;;;22.20;99.90;;;;;;4872435;28;20200;-78
2021/06/09 07:17:53;;;;;;;25.20;3.57;;;22.80;99.90;;;;;;4874759;28;20193;-78
2021/06/09 07:20:19;;;;;;;18.60;2.67;;;23.10;99.90;;;;;;4872426;28;20294;-77
2021/06/09 07:22:45;;;;;;;17.40;2.60;;;23.40;99.90;;;;;;4873056;28;20570;-78
2021/06/09 07:25:10;;;;;;;25.13;3.47;;;23.80;99.90;;;;;;4872163;28;20263;-76
2021/06/09 07:27:34;;;;;;;19.17;2.87;;;24.00;99.90;;;;;;4873540;28;20177;-78
2021/06/09 07:29:58;;;;;;;17.13;2.53;;;24.00;99.90;;;;;;4874911;28;20606;-78
2021/06/09 07:32:21;;;;;;;16.30;2.43;;;24.10;99.90;;;;;;4876692;28;20682;-78
2021/06/09 07:34:43;;;;;;;34.90;5.03;;;;;;;;;;4876222;28;20710;-78
2021/06/09 07:37:12;;;;;;;24.43;3.57;;;24.40;99.90;;;;;;4874528;28;20202;-79
2021/06/09 07:39:39;;;;;;;16.40;2.47;;;25.00;99.90;;;;;;4876722;28;20190;-78
2021/06/09 07:42:06;;;;;;;22.57;3.30;;;25.80;99.90;;;;;;4885819;28;20594;-81
2021/06/09 07:44:33;;;;;;;20.60;3.00;;;26.60;99.90;;;;;;4892484;28;20213;-79
2021/06/09 07:46:59;;;;;;;21.63;3.10;;;27.20;99.90;;;;;;4884199;28;20234;-81
2021/06/09 07:49:23;;;;;;;22.73;3.37;;;27.00;99.90;;;;;;4884988;28;20237;-79
2021/06/09 07:51:46;;;;;;;17.00;2.47;;;26.80;99.90;;;;;;4878221;28;20192;-77
2021/06/09 07:54:09;;;;;;;21.20;3.07;;;26.40;99.90;;;;;;4885919;28;20269;-77
2021/06/09 07:56:35;;;;;;;21.13;3.03;;;26.00;99.90;;;;;;4885900;28;20192;-76
2021/06/09 07:58:58;;;;;;;28.10;3.97;;;;;;;;;;4888965;28;20199;-76
2021/06/09 08:01:20;;;;;;;26.97;3.83;;;;;;;;;;4856060;28;20281;-78
2021/06/09 08:03:44;;;;;;;22.93;3.37;;;;;;;;;;4887696;28;20609;-78
2021/06/09 08:06:07;;;;;;;20.30;2.97;;;25.10;99.90;;;;;;4883905;28;20179;-77
2021/06/09 08:08:30;;;;;;;19.20;2.90;;;24.90;99.90;;;;;;4885321;28;20181;-80
2021/06/09 08:10:53;;;;;;;27.60;3.97;;;;;;;;;;4883583;28;20603;-77
2021/06/09 08:13:17;;;;;;;16.03;2.30;;;24.70;99.90;;;;;;4878387;28;20258;-78
2021/06/09 08:15:40;;;;;;;21.30;3.13;;;;;;;;;;4882966;28;20234;-78
2021/06/09 08:18:03;;;;;;;25.70;3.73;;;24.70;99.90;;;;;;4883195;28;20735;-77
2021/06/09 08:20:26;;;;;;;16.47;2.40;;;24.70;99.90;;;;;;4886063;28;20183;-78
2021/06/09 08:22:49;;;;;;;20.17;2.90;;;24.80;99.90;;;;;;4878446;28;20184;-78
2021/06/09 08:25:13;;;;;;;20.47;3.03;;;;;;;;;;4883532;28;20181;-77
2021/06/09 08:27:36;;;;;;;21.07;3.03;;;25.00;99.90;;;;;;4884583;28;20679;-77
2021/06/09 08:29:59;;;;;;;27.03;3.80;;;25.30;99.90;;;;;;4885765;28;20215;-77
2021/06/09 08:32:22;;;;;;;15.60;2.27;;;;;;;;;;4883217;28;20181;-78
2021/06/09 08:34:44;;;;;;;33.90;4.87;;;;;;;;;;4882256;28;20720;-79
2021/06/09 08:37:06;;;;;;;18.30;2.60;;;;;;;;;;4882689;28;20188;-78
2021/06/09 08:39:29;;;;;;;16.67;2.47;;;;;;;;;;4877925;28;20440;-80
2021/06/09 08:41:54;;;;;;;29.43;4.13;;;26.00;99.90;;;;;;4873333;28;20580;-80
2021/06/09 08:44:16;;;;;;;25.63;3.60;;;;;;;;;;4867177;28;20297;-78
2021/06/09 08:46:40;;;;;;;33.83;4.80;;;26.50;99.90;;;;;;4883304;28;20696;-78
2021/06/09 08:49:04;;;;;;;24.07;3.33;;;26.80;99.90;;;;;;4886213;28;20194;-77
2021/06/09 08:51:31;;;;;;;17.07;2.43;;;27.20;99.90;;;;;;4871984;28;20665;-77
2021/06/09 08:53:54;;;;;;;25.30;3.13;;;27.70;99.90;;;;;;4884591;28;20209;-77
2021/06/09 08:56:17;;;;;;;38.43;4.87;;;28.20;99.90;;;;;;4882170;28;20272;-75
2021/06/09 08:58:39;;;;;;;36.70;4.53;;;;;;;;;;4883464;28;20184;-77
2021/06/09 09:01:02;;;;;;;28.03;3.47;;;;;;;;;;4879341;28;20335;-77
2021/06/09 09:03:25;;;;;;;34.53;4.33;;;30.40;99.90;;;;;;4879594;28;20191;-75
2021/06/09 09:05:48;;;;;;;128.73;15.37;;;;;;;;;;4847906;28;20514;-76
2021/06/09 09:08:10;;;;;;;32.90;4.23;;;;;;;;;;4868330;28;20234;-77
2021/06/09 09:10:33;;;;;;;33.43;4.20;;;30.70;99.90;;;;;;4880085;28;20529;-78
2021/06/09 09:12:55;;;;;;;51.20;6.23;;;;;;;;;;4868409;28;20285;-77
2021/06/09 09:15:21;;;;;;;20.97;2.77;;;30.80;99.90;;;;;;4884108;28;20196;-77
2021/06/09 09:17:54;;;;;;;35.03;8.07;;;30.80;99.90;;;;;;4885243;28;20549;-76
2021/06/09 09:20:22;;;;;;;27.50;3.53;;;30.70;99.90;;;;;;4884016;28;20200;-75
2021/06/09 09:22:44;;;;;;;23.83;3.00;;;;;;;;;;4880532;28;20196;-76
2021/06/09 09:28:43;;;;;;;19.37;2.47;;;;;;;;;;4865213;28;20180;-73
2021/06/09 09:31:09;;;;;;;21.37;2.67;;;28.50;99.90;;;;;;4875598;28;20238;-75
2021/06/09 09:33:32;;;;;;;13.53;1.73;;;28.10;99.90;;;;;;4885715;28;20263;-73
2021/06/09 09:35:56;;;;;;;13.97;1.97;;;27.80;99.90;;;;;;4884412;28;20184;-75
2021/06/09 09:38:22;;;;;;;25.17;3.17;;;27.60;99.90;;;;;;4883566;28;20661;-75
2021/06/09 09:41:04;;;;;;;16.37;2.10;;;27.50;99.90;;;;;;4883485;28;20200;-76
2021/06/09 09:43:41;;;;;;;16.37;2.13;;;27.30;99.90;;;;;;4896409;28;20186;-74
2021/06/09 09:46:08;;;;;;;21.10;2.77;;;27.70;99.90;;;;;;4883664;28;20179;-75
2021/06/09 09:48:31;;;;;;;21.23;2.73;;;;;;;;;;4876084;28;20196;-75
2021/06/09 09:50:53;;;;;;;20.50;2.60;;;;;;;;;;4887224;28;20181;-75
2021/06/09 09:53:20;;;;;;;15.80;2.08;;;34.40;99.90;;;;;;4877281;28;20327;-74
2021/06/09 09:55:58;;;;;;;34.15;4.35;;;36.60;99.90;;;;;;4872395;28;20209;-75
2021/06/09 09:58:21;;;;;;;27.40;3.63;;;;;;;;;;4875143;28;20635;-74
2021/06/09 10:00:43;;;;;;;67.50;8.57;;;;;;;;;;4879995;28;20181;-76
2021/06/09 10:03:17;;;;;;;23.15;2.97;;;40.10;99.90;;;;;;4882213;28;20204;-75
2021/06/09 10:05:39;;;;;;;17.33;2.35;;;;;;;;;;4876173;28;20238;-75
2021/06/09 10:08:05;;;;;;;20.38;2.67;;;40.10;99.90;;;;;;4880744;28;21098;-77
2021/06/09 10:10:28;;;;;;;21.80;2.85;;;38.70;99.90;;;;;;4872232;28;20181;-74
2021/06/09 10:13:05;;;;;;;24.17;3.13;;;37.10;99.90;;;;;;4881927;28;20185;-75
2021/06/09 10:15:35;;;;;;;14.57;1.90;;;36.30;99.90;;;;;;4882483;28;20172;-77
2021/06/09 10:18:13;;;;;;;19.90;2.63;;;36.00;99.90;;;;;;4880985;28;20243;-76
2021/06/09 10:20:36;;;;;;;16.30;2.15;;;35.20;99.90;;;;;;4874996;28;20206;-78
2021/06/09 10:22:59;;;;;;;29.58;3.78;;;;;;;;;;4885978;28;20177;-78
2021/06/09 10:25:21;;;;;;;19.67;2.55;;;;;;;;;;4885348;28;20184;-77
2021/06/09 10:27:48;;;;;;;29.25;4.63;;;38.30;99.90;;;;;;4878493;28;20261;-78
2021/06/09 10:30:22;;;;;;;36.40;4.82;;;40.50;99.90;;;;;;4884972;28;20531;-79
2021/06/09 10:32:45;;;;;;;26.25;20.88;;;;;;;;;;4882789;28;20709;-78
2021/06/09 10:35:08;;;;;;;35.90;15.93;;;43.50;99.90;;;;;;4880794;28;20585;-77
2021/06/09 10:37:31;;;;;;;25.75;18.45;;;;;;;;;;4877537;28;20275;-77
2021/06/09 10:39:53;;;;;;;77.60;72.15;;;;;;;;;;4877667;28;20728;-77
2021/06/09 10:42:17;;;;;;;144.90;135.65;;;47.20;99.90;;;;;;4877660;28;20193;-79
2021/06/09 10:44:45;;;;;;;201.48;187.70;;;48.10;99.90;;;;;;4881308;28;20278;-82
2021/06/09 10:47:11;;;;;;;196.52;183.98;;;48.50;99.90;;;;;;4882537;28;20258;-77
2021/06/09 10:49:37;;;;;;;174.52;135.40;;;48.00;99.90;;;;;;4884944;28;20254;-76
2021/06/09 10:52:00;;;;;;;103.75;96.97;;;47.40;99.90;;;;;;4871164;28;20197;-81
2021/06/09 10:54:24;;;;;;;86.78;81.20;;;47.70;99.90;;;;;;4875994;28;20278;-79
2021/06/09 10:56:48;;;;;;;88.88;82.28;;;48.20;99.90;;;;;;4864161;28;20254;-76
2021/06/09 10:59:12;;;;;;;102.90;93.00;;;48.70;99.90;;;;;;4874745;28;20184;-78
2021/06/09 11:01:35;;;;;;;91.70;85.45;;;49.20;99.90;;;;;;4881215;28;20258;-86
2021/06/09 11:04:00;;;;;;;95.70;89.47;;;49.80;99.90;;;;;;4881874;28;20238;-79
2021/06/09 11:06:35;;;;;;;104.57;97.78;;;50.40;99.90;;;;;;4885621;28;20199;-73
2021/06/09 11:09:14;;;;;;;121.43;113.25;;;50.90;99.90;;;;;;4888409;28;20179;-77
2021/06/09 11:11:37;;;;;;;95.32;88.70;;;;;;;;;;4886728;28;20234;-83
2021/06/09 11:14:18;;;;;;;134.65;119.78;;;51.30;99.90;;;;;;4894244;28;20203;-81
2021/06/09 11:16:48;;;;;;;121.70;107.82;;;50.60;99.90;;;;;;4886846;28;20179;-81
2021/06/09 11:19:32;;;;;;;72.95;66.55;;;48.50;99.90;;;;;;4890535;28;20187;-75
2021/06/09 11:21:55;;;;;;;33.47;29.38;;;;;;;;;;4882338;28;20180;-78
2021/06/09 11:24:17;;;;;;;32.88;26.42;;;;;;;;;;4885613;28;20200;-75
2021/06/09 11:26:40;;;;;;;47.25;17.85;;;;;;;;;;4883658;28;20201;-74
2021/06/09 11:29:05;;;;;;;34.65;11.57;;;;;;;;;;4865859;28;20631;-78
2021/06/09 11:31:29;;;;;;;39.92;11.55;;;39.30;99.90;;;;;;4875975;28;20235;-77
2021/06/09 11:34:02;;;;;;;19.35;3.55;;;37.80;99.90;;;;;;4877164;28;20217;-74
2021/06/09 11:36:33;;;;;;;28.00;4.30;;;37.20;99.90;;;;;;4875942;28;20185;-74
2021/06/09 11:38:57;;;;;;;21.10;3.17;;;38.10;99.90;;;;;;4876259;28;20675;-77
2021/06/09 11:41:21;;;;;;;19.02;2.58;;;38.90;99.90;;;;;;4869496;28;20252;-79
2021/06/09 11:43:45;;;;;;;17.10;2.60;;;39.20;99.90;;;;;;4883056;28;20221;-77
2021/06/09 11:46:10;;;;;;;25.20;3.90;;;40.00;99.90;;;;;;4875701;28;20185;-77
2021/06/09 11:48:33;;;;;;;32.08;6.38;;;41.50;99.90;;;;;;4886017;28;20188;-79
2021/06/09 11:51:18;;;;;;;30.42;11.48;;;43.20;99.90;;;;;;4888235;28;20613;-77
2021/06/09 11:53:42;;;;;;;24.27;21.17;;;45.10;99.90;;;;;;4885212;28;20242;-77
2021/06/09 11:56:22;;;;;;;51.90;47.25;;;46.60;99.90;;;;;;4883740;28;20274;-81
2021/06/09 11:58:46;;;;;;;115.53;107.43;;;48.10;99.90;;;;;;4881061;28;20254;-84
2021/06/09 12:01:10;;;;;;;184.55;172.35;;;47.90;99.90;;;;;;4871107;28;20185;-83
2021/06/09 12:03:33;;;;;;;58.15;51.67;;;;;;;;;;4877789;28;20281;-79
2021/06/09 12:06:12;;;;;;;26.10;22.20;;;46.40;99.90;;;;;;4863770;28;20190;-90
2021/06/09 12:08:34;;;;;;;26.35;8.20;;;;;;;;;;4883087;28;20202;-85
2021/06/09 12:10:56;;;;;;;20.42;5.28;;;;;;;;;;4887310;28;20193;-86
2021/06/09 12:13:26;;;;;;;24.85;3.50;;;41.10;99.90;;;;;;4875884;28;20208;-80
2021/06/09 12:15:48;;;;;;;11.02;1.52;;;;;;;;;;4884203;28;20583;-82
2021/06/09 12:18:11;;;;;;;24.13;3.17;;;;;;;;;;4881467;28;20173;-84
2021/06/09 12:20:34;;;;;;;29.48;3.85;;;;;;;;;;4885145;28;20697;-78
2021/06/09 12:22:58;;;;;;;26.38;3.33;;;33.50;99.90;;;;;;4884814;28;20775;-78
2021/06/09 12:25:29;;;;;;;21.63;2.72;;;32.00;99.90;;;;;;4888866;28;20196;-85
2021/06/09 12:28:00;;;;;;;14.80;1.95;;;30.80;99.90;;;;;;4884764;28;20663;-78
2021/06/09 12:30:23;;;;;;;12.77;1.70;;;;;;;;;;4887132;28;20200;-80
2021/06/09 12:32:45;;;;;;;15.20;2.00;;;;;;;;;;4895094;28;20270;-83
2021/06/09 12:35:10;;;;;;;40.78;5.03;;;27.90;99.90;;;;;;4892292;28;20259;-79
2021/06/09 12:37:34;;;;;;;17.55;2.30;;;27.30;99.90;;;;;;4895205;28;20189;-85
2021/06/09 12:40:06;;;;;;;18.50;2.42;;;26.80;99.90;;;;;;4894972;28;20708;-81
2021/06/09 12:42:29;;;;;;;22.17;2.85;;;26.30;99.90;;;;;;4894102;28;20229;-79
2021/06/09 12:44:51;;;;;;;43.13;5.50;;;;;;;;;;4892904;28;20216;-83
2021/06/09 12:47:13;;;;;;;17.17;2.23;;;;;;;;;;4894951;28;20188;-85
2021/06/09 12:49:36;;;;;;;11.60;1.50;;;;;;;;;;4889168;28;20180;-79
2021/06/09 12:52:06;;;;;;;18.27;2.43;;;25.30;99.90;;;;;;4893762;28;20625;-81
2021/06/09 12:54:29;;;;;;;18.63;2.43;;;;;;;;;;4861413;28;20214;-77
2021/06/09 12:56:52;;;;;;;30.10;3.83;;;26.00;99.90;;;;;;4876207;28;20216;-78
2021/06/09 12:59:30;;;;;;;22.80;2.93;;;26.60;99.90;;;;;;4882356;28;20188;-82
2021/06/09 13:01:56;;;;;;;16.43;2.17;;;27.70;99.90;;;;;;4873410;28;20188;-77
2021/06/09 13:04:36;;;;;;;28.93;3.63;;;28.40;99.90;;;;;;4855968;28;20194;-82
2021/06/09 13:06:59;;;;;;;30.30;3.87;;;;;;;;;;4884434;28;20289;-75
2021/06/09 13:09:21;;;;;;;27.27;3.47;;;;;;;;;;4883315;28;20208;-80
2021/06/09 13:11:46;;;;;;;13.17;1.80;;;29.10;99.90;;;;;;4880526;28;20189;-78
2021/06/09 13:14:09;;;;;;;21.20;2.77;;;29.20;99.90;;;;;;4883953;28;20234;-82
2021/06/09 13:16:53;;;;;;;17.13;2.23;;;29.50;99.90;;;;;;4885275;28;20189;-82
2021/06/09 13:19:17;;;;;;;24.33;3.07;;;;;;;;;;4878591;28;20614;-75
2021/06/09 13:21:41;;;;;;;14.35;1.92;;;31.40;99.90;;;;;;4877614;28;20568;-75
2021/06/09 13:24:17;;;;;;;21.38;2.80;;;32.50;99.90;;;;;;4881681;28;20718;-78
2021/06/09 13:26:39;;;;;;;17.00;2.22;;;;;;;;;;4855924;28;20259;-80
2021/06/09 13:29:15;;;;;;;17.30;2.28;;;34.60;99.90;;;;;;4879042;28;20947;-80
2021/06/09 13:31:41;;;;;;;11.93;1.60;;;;;;;;;;4880898;28;20164;-78